createdAt,value
2017-12-13T00:01:36.671Z,19.73
2017-12-13T00:03:44.799Z,19.69
2017-12-13T00:05:53.484Z,19.77
2017-12-13T00:08:01.106Z,19.74
2017-12-13T00:10:10.884Z,19.79
2017-12-13T00:12:18.612Z,19.77
2017-12-13T00:14:30.371Z,19.68
2017-12-13T00:16:37.947Z,19.59
2017-12-13T00:18:45.206Z,19.66
2017-12-13T00:20:51.418Z,19.63
2017-12-13T00:22:56.869Z,19.59
2017-12-13T00:25:05.125Z,19.57
2017-12-13T00:27:11.066Z,19.60
2017-12-13T00:29:18.052Z,19.56
2017-12-13T00:31:24.081Z,19.61
2017-12-13T00:33:29.827Z,19.68
2017-12-13T00:35:35.506Z,19.64
2017-12-13T00:37:41.470Z,19.53
2017-12-13T00:39:48.354Z,19.55
2017-12-13T00:41:54.615Z,19.64
2017-12-13T00:44:00.678Z,19.60
2017-12-13T00:46:06.095Z,19.55
2017-12-13T00:48:11.882Z,19.52
2017-12-13T00:50:17.474Z,19.48
2017-12-13T00:52:23.094Z,19.52
2017-12-13T00:54:28.725Z,19.48
2017-12-13T00:56:34.026Z,19.48
2017-12-13T00:58:39.803Z,19.54
2017-12-13T01:00:45.993Z,19.50
2017-12-13T01:02:51.972Z,19.44
2017-12-13T01:04:57.517Z,19.44
2017-12-13T01:07:03.521Z,19.51
2017-12-13T01:09:09.173Z,19.47
2017-12-13T01:11:14.961Z,19.47
2017-12-13T01:13:20.876Z,19.45
2017-12-13T01:15:27.286Z,19.37
2017-12-13T01:17:35.039Z,19.43
2017-12-13T01:19:41.335Z,19.35
2017-12-13T01:21:48.683Z,19.40
2017-12-13T01:23:54.136Z,19.29
2017-12-13T01:26:00.873Z,19.33
2017-12-13T01:28:06.494Z,19.26
2017-12-13T01:30:14.135Z,19.32
2017-12-13T01:32:19.854Z,19.29
2017-12-13T01:34:26.334Z,19.25
2017-12-13T01:36:32.111Z,19.27
2017-12-13T01:38:38.688Z,19.28
2017-12-13T01:40:44.255Z,19.31
2017-12-13T01:42:49.767Z,19.28
2017-12-13T01:44:56.855Z,19.26
2017-12-13T01:47:03.850Z,19.23
2017-12-13T01:49:09.371Z,19.25
2017-12-13T01:51:15.224Z,19.24
2017-12-13T01:53:20.768Z,19.28
2017-12-13T01:55:26.818Z,19.31
2017-12-13T01:57:32.682Z,19.26
2017-12-13T01:59:39.278Z,19.30
2017-12-13T02:01:46.514Z,19.31
2017-12-13T02:03:52.154Z,19.28
2017-12-13T02:05:57.841Z,19.26
2017-12-13T02:08:04.609Z,19.31
2017-12-13T02:10:13.022Z,19.29
2017-12-13T02:12:21.620Z,19.23
2017-12-13T02:14:27.537Z,19.33
2017-12-13T02:16:34.161Z,19.36
2017-12-13T02:18:39.935Z,19.29
2017-12-13T02:20:45.608Z,19.27
2017-12-13T02:22:51.871Z,19.25
2017-12-13T02:24:58.919Z,19.35
2017-12-13T02:27:05.241Z,19.29
2017-12-13T02:29:11.263Z,19.30
2017-12-13T02:31:17.124Z,19.35
2017-12-13T02:33:23.192Z,19.36
2017-12-13T02:35:28.539Z,19.35
2017-12-13T02:37:34.691Z,19.39
2017-12-13T02:39:40.164Z,19.33
2017-12-13T02:41:45.655Z,19.37
2017-12-13T02:43:51.598Z,19.39
2017-12-13T02:45:57.344Z,19.33
2017-12-13T02:48:03.624Z,19.31
2017-12-13T02:50:09.981Z,19.35
2017-12-13T02:52:15.586Z,19.35
2017-12-13T02:54:21.160Z,19.35
2017-12-13T02:56:28.096Z,19.37
2017-12-13T02:58:35.053Z,19.26
2017-12-13T03:00:41.660Z,19.28
2017-12-13T03:02:47.589Z,19.31
2017-12-13T03:04:53.074Z,19.36
2017-12-13T03:06:58.744Z,19.28
2017-12-13T03:09:04.564Z,19.38
2017-12-13T03:11:10.723Z,19.33
2017-12-13T03:13:16.386Z,19.30
2017-12-13T03:15:22.089Z,19.27
2017-12-13T03:17:27.399Z,19.29
2017-12-13T03:19:33.281Z,19.25
2017-12-13T03:21:39.087Z,19.27
2017-12-13T03:23:44.650Z,19.19
2017-12-13T03:25:50.477Z,19.17
2017-12-13T03:27:56.077Z,19.18
2017-12-13T03:30:01.671Z,19.22
2017-12-13T03:32:07.086Z,19.19
2017-12-13T03:34:12.703Z,19.22
2017-12-13T03:36:18.293Z,19.19
2017-12-13T03:38:23.707Z,19.20
2017-12-13T03:40:29.311Z,19.14
2017-12-13T03:42:34.770Z,19.17
2017-12-13T03:44:39.941Z,19.18
2017-12-13T03:46:46.097Z,19.16
2017-12-13T03:48:51.255Z,19.08
2017-12-13T03:50:59.780Z,19.09
2017-12-13T03:53:05.357Z,19.11
2017-12-13T03:55:11.349Z,19.14
2017-12-13T03:57:16.679Z,19.08
2017-12-13T03:59:22.191Z,19.11
2017-12-13T04:01:27.754Z,19.11
2017-12-13T04:03:33.074Z,19.09
2017-12-13T04:05:38.913Z,19.16
2017-12-13T04:07:44.557Z,19.07
2017-12-13T04:09:50.110Z,19.02
2017-12-13T04:12:11.838Z,19.06
2017-12-13T04:14:17.330Z,19.05
2017-12-13T04:16:22.983Z,19.00
2017-12-13T04:18:28.076Z,19.05
2017-12-13T04:20:33.400Z,19.02
2017-12-13T04:22:39.560Z,18.98
2017-12-13T04:24:45.141Z,19.01
2017-12-13T04:26:50.871Z,19.10
2017-12-13T04:28:56.053Z,19.06
2017-12-13T04:31:02.391Z,19.04
2017-12-13T04:33:07.709Z,19.02
2017-12-13T04:35:14.279Z,19.01
2017-12-13T04:37:19.998Z,19.06
2017-12-13T04:39:25.214Z,19.04
2017-12-13T04:41:31.281Z,19.06
2017-12-13T04:43:36.563Z,19.08
2017-12-13T04:45:41.983Z,19.04
2017-12-13T04:47:47.253Z,19.03
2017-12-13T04:49:52.738Z,19.06
2017-12-13T04:51:58.232Z,19.06
2017-12-13T04:54:03.650Z,19.09
2017-12-13T04:56:09.185Z,19.01
2017-12-13T04:58:14.584Z,19.06
2017-12-13T05:00:19.853Z,19.10
2017-12-13T05:02:25.546Z,19.11
2017-12-13T05:04:30.752Z,19.07
2017-12-13T05:06:36.787Z,19.09
2017-12-13T05:08:47.020Z,19.05
2017-12-13T05:10:52.284Z,19.10
2017-12-13T05:12:58.282Z,19.05
2017-12-13T05:15:04.058Z,19.03
2017-12-13T05:17:13.071Z,19.11
2017-12-13T05:19:18.512Z,19.00
2017-12-13T05:21:24.314Z,19.01
2017-12-13T05:23:29.784Z,18.99
2017-12-13T05:25:35.344Z,19.06
2017-12-13T05:27:42.779Z,18.97
2017-12-13T05:29:48.661Z,19.01
2017-12-13T05:31:54.307Z,19.08
2017-12-13T05:34:00.156Z,19.00
2017-12-13T05:36:06.070Z,19.05
2017-12-13T05:38:12.624Z,18.98
2017-12-13T05:40:19.963Z,19.02
2017-12-13T05:42:25.635Z,19.01
2017-12-13T05:44:31.169Z,19.00
2017-12-13T05:46:38.395Z,18.90
2017-12-13T05:48:44.667Z,18.96
2017-12-13T05:50:50.063Z,19.02
2017-12-13T05:52:55.870Z,18.93
2017-12-13T05:55:01.380Z,18.91
2017-12-13T05:57:06.868Z,18.93
2017-12-13T05:59:12.416Z,18.95
2017-12-13T06:01:17.977Z,18.94
2017-12-13T06:03:23.599Z,18.93
2017-12-13T06:05:30.365Z,18.96
2017-12-13T06:07:35.928Z,18.89
2017-12-13T06:09:41.836Z,18.86
2017-12-13T06:11:48.431Z,18.85
2017-12-13T06:13:59.457Z,18.84
2017-12-13T06:16:07.120Z,18.91
2017-12-13T06:18:16.187Z,18.94
2017-12-13T06:20:23.778Z,18.88
2017-12-13T06:22:31.481Z,18.88
2017-12-13T06:24:38.489Z,18.94
2017-12-13T06:26:44.245Z,19.02
2017-12-13T06:28:49.641Z,18.96
2017-12-13T06:30:56.617Z,19.17
2017-12-13T06:33:04.444Z,19.26
2017-12-13T06:35:10.299Z,19.38
2017-12-13T06:37:16.076Z,19.44
2017-12-13T06:39:21.713Z,19.46
2017-12-13T06:41:27.016Z,19.46
2017-12-13T06:43:33.312Z,19.51
2017-12-13T06:45:39.838Z,19.45
2017-12-13T06:47:47.014Z,19.49
2017-12-13T06:49:53.045Z,19.51
2017-12-13T06:51:59.074Z,19.60
2017-12-13T06:54:04.730Z,19.71
2017-12-13T06:56:11.030Z,19.64
2017-12-13T06:58:16.629Z,19.55
2017-12-13T07:00:22.360Z,19.44
2017-12-13T07:02:31.540Z,19.46
2017-12-13T07:04:37.439Z,19.37
2017-12-13T07:06:45.276Z,19.35
2017-12-13T07:08:51.399Z,19.43
2017-12-13T07:10:58.066Z,19.47
2017-12-13T07:13:05.039Z,19.46
2017-12-13T07:15:11.126Z,19.61
2017-12-13T07:17:17.377Z,19.57
2017-12-13T07:19:22.995Z,19.50
2017-12-13T07:21:29.162Z,19.56
2017-12-13T07:23:41.350Z,19.55
2017-12-13T07:25:50.845Z,19.63
2017-12-13T07:27:58.502Z,19.49
2017-12-13T07:30:04.281Z,19.51
2017-12-13T07:32:11.304Z,19.38
2017-12-13T07:34:17.454Z,19.41
2017-12-13T07:36:30.557Z,19.36
2017-12-13T07:38:37.193Z,19.27
2017-12-13T07:40:49.339Z,19.24
2017-12-13T07:42:55.079Z,19.21
2017-12-13T07:45:02.250Z,19.15
2017-12-13T07:47:08.809Z,19.23
2017-12-13T07:49:15.139Z,19.23
2017-12-13T07:51:23.104Z,19.22
2017-12-13T07:53:29.438Z,19.26
2017-12-13T07:55:40.164Z,19.19
2017-12-13T07:57:46.788Z,19.06
2017-12-13T07:59:53.160Z,19.18
2017-12-13T08:01:59.454Z,19.19
2017-12-13T08:04:05.840Z,19.19
2017-12-13T08:06:12.544Z,19.21
2017-12-13T08:08:19.685Z,19.34
2017-12-13T08:10:27.991Z,19.35
2017-12-13T08:12:40.606Z,19.26
2017-12-13T08:14:47.462Z,19.30
2017-12-13T08:16:56.773Z,19.40
2017-12-13T08:19:03.199Z,19.37
2017-12-13T08:21:10.019Z,19.44
2017-12-13T08:23:15.322Z,19.43
2017-12-13T08:25:24.839Z,19.39
2017-12-13T08:27:30.561Z,19.29
2017-12-13T08:29:35.999Z,19.27
2017-12-13T08:31:42.262Z,19.37
2017-12-13T08:33:49.092Z,19.36
2017-12-13T08:35:57.569Z,19.37
2017-12-13T08:38:04.396Z,19.23
2017-12-13T08:40:12.999Z,19.40
2017-12-13T08:42:20.181Z,19.35
2017-12-13T08:44:27.011Z,19.19
2017-12-13T08:46:32.983Z,19.11
2017-12-13T08:48:38.498Z,19.30
2017-12-13T08:50:44.313Z,19.25
2017-12-13T08:52:49.930Z,19.31
2017-12-13T08:54:56.097Z,19.31
2017-12-13T08:57:04.647Z,19.36
2017-12-13T08:59:10.816Z,19.51
2017-12-13T09:01:16.523Z,19.32
2017-12-13T09:03:24.236Z,19.25
2017-12-13T09:05:30.436Z,19.36
2017-12-13T09:07:36.498Z,19.50
2017-12-13T09:09:42.914Z,19.48
2017-12-13T09:11:52.269Z,19.53
2017-12-13T09:14:00.209Z,19.55
2017-12-13T09:16:06.888Z,19.46
2017-12-13T09:18:15.498Z,19.60
2017-12-13T09:20:21.350Z,19.53
2017-12-13T09:22:27.613Z,19.38
2017-12-13T09:24:33.341Z,19.45
2017-12-13T09:26:39.016Z,18.74
2017-12-13T09:28:45.189Z,18.56
2017-12-13T09:30:51.156Z,17.38
2017-12-13T09:32:57.818Z,16.99
2017-12-13T09:35:03.950Z,17.67
2017-12-13T09:37:11.617Z,17.75
2017-12-13T09:39:20.534Z,17.33
2017-12-13T09:41:26.876Z,17.25
2017-12-13T09:43:32.857Z,17.40
2017-12-13T09:45:38.375Z,17.93
2017-12-13T09:47:48.749Z,18.32
2017-12-13T09:49:55.581Z,18.73
2017-12-13T09:52:00.988Z,18.87
2017-12-13T09:54:09.030Z,19.00
2017-12-13T09:56:16.544Z,19.17
2017-12-13T09:58:23.991Z,19.15
2017-12-13T10:00:36.582Z,19.16
2017-12-13T10:02:44.106Z,19.34
2017-12-13T10:04:51.257Z,19.38
2017-12-13T10:07:04.800Z,19.20
2017-12-13T10:09:11.833Z,19.27
2017-12-13T10:11:21.478Z,19.25
2017-12-13T10:13:28.399Z,19.51
2017-12-13T10:15:36.576Z,19.49
2017-12-13T10:17:43.503Z,19.39
2017-12-13T10:19:50.456Z,19.41
2017-12-13T10:21:58.665Z,19.39
2017-12-13T10:24:06.451Z,19.31
2017-12-13T10:26:12.310Z,19.45
2017-12-13T10:28:18.233Z,19.58
2017-12-13T10:30:25.922Z,19.53
2017-12-13T10:32:33.678Z,19.48
2017-12-13T10:34:40.288Z,19.43
2017-12-13T10:36:50.401Z,19.44
2017-12-13T10:38:57.235Z,19.45
2017-12-13T10:41:03.037Z,19.37
2017-12-13T10:43:09.750Z,19.37
2017-12-13T10:45:17.847Z,19.46
2017-12-13T10:47:26.643Z,19.48
2017-12-13T10:49:32.651Z,19.52
2017-12-13T10:51:38.800Z,19.50
2017-12-13T10:53:45.078Z,19.51
2017-12-13T10:55:50.731Z,19.54
2017-12-13T10:57:56.540Z,19.59
2017-12-13T11:00:03.031Z,19.62
2017-12-13T11:02:11.455Z,19.50
2017-12-13T11:04:20.342Z,19.52
2017-12-13T11:06:26.203Z,19.52
2017-12-13T11:08:35.422Z,19.48
2017-12-13T11:10:48.408Z,19.46
2017-12-13T11:12:56.030Z,19.50
2017-12-13T11:15:02.719Z,19.49
2017-12-13T11:17:09.470Z,19.55
2017-12-13T11:19:17.958Z,19.59
2017-12-13T11:21:29.844Z,19.62
2017-12-13T11:23:38.236Z,19.55
2017-12-13T11:25:48.458Z,19.62
2017-12-13T11:27:56.538Z,19.63
2017-12-13T11:30:03.892Z,19.64
2017-12-13T11:32:15.205Z,19.71
2017-12-13T11:34:22.986Z,19.70
2017-12-13T11:36:28.872Z,19.72
2017-12-13T11:38:36.317Z,19.78
2017-12-13T11:40:42.414Z,19.66
2017-12-13T11:42:49.367Z,19.81
2017-12-13T11:44:57.124Z,19.77
2017-12-13T11:47:05.934Z,19.69
2017-12-13T11:49:16.445Z,19.71
2017-12-13T11:51:24.594Z,19.70
2017-12-13T11:53:36.823Z,19.78
2017-12-13T11:55:43.747Z,19.81
2017-12-13T11:57:54.240Z,19.77
2017-12-13T12:00:10.175Z,19.79
2017-12-13T12:02:17.334Z,19.72
2017-12-13T12:04:26.528Z,19.83
2017-12-13T12:06:33.154Z,19.90
2017-12-13T12:08:39.535Z,19.91
2017-12-13T12:10:47.783Z,19.92
2017-12-13T12:12:57.828Z,19.92
2017-12-13T12:15:09.627Z,19.87
2017-12-13T12:17:16.368Z,19.94
2017-12-13T12:19:26.512Z,19.97
2017-12-13T12:21:37.526Z,19.96
2017-12-13T12:23:46.305Z,19.99
2017-12-13T12:25:53.546Z,19.99
2017-12-13T12:28:00.354Z,20.05
2017-12-13T12:30:11.444Z,20.05
2017-12-13T12:32:19.534Z,20.15
2017-12-13T12:34:26.899Z,20.22
2017-12-13T12:36:35.209Z,20.16
2017-12-13T12:38:44.302Z,20.22
2017-12-13T12:40:52.081Z,20.24
2017-12-13T12:42:58.493Z,20.19
2017-12-13T12:45:14.476Z,20.13
2017-12-13T12:47:25.545Z,20.05
2017-12-13T12:49:38.847Z,20.06
2017-12-13T12:51:50.465Z,20.14
2017-12-13T12:53:58.311Z,20.15
2017-12-13T12:56:04.806Z,20.13
2017-12-13T12:58:12.898Z,20.18
2017-12-13T13:00:20.771Z,20.19
2017-12-13T13:02:28.995Z,20.12
2017-12-13T13:04:38.853Z,20.04
2017-12-13T13:06:45.191Z,20.05
2017-12-13T13:08:55.721Z,19.96
2017-12-13T13:11:07.496Z,19.97
2017-12-13T13:13:17.683Z,20.04
2017-12-13T13:15:35.611Z,20.15
2017-12-13T13:17:47.419Z,20.15
2017-12-13T13:19:59.418Z,20.18
2017-12-13T13:22:09.405Z,20.27
2017-12-13T13:24:21.564Z,20.16
2017-12-13T13:26:34.266Z,20.17
2017-12-13T13:28:41.839Z,20.15
2017-12-13T13:30:48.778Z,20.08
2017-12-13T13:33:00.741Z,20.01
2017-12-13T13:35:22.113Z,20.02
2017-12-13T13:37:32.363Z,20.23
2017-12-13T13:39:44.812Z,20.12
2017-12-13T13:41:51.261Z,20.09
2017-12-13T13:43:58.597Z,19.96
2017-12-13T13:46:07.951Z,19.98
2017-12-13T13:48:18.152Z,20.04
2017-12-13T13:50:25.426Z,20.04
2017-12-13T13:52:33.390Z,20.03
2017-12-13T13:54:46.526Z,19.99
2017-12-13T13:56:55.823Z,19.92
2017-12-13T13:59:10.582Z,20.03
2017-12-13T14:01:19.621Z,20.00
2017-12-13T14:03:27.966Z,19.95
2017-12-13T14:05:35.243Z,19.96
2017-12-13T14:07:43.273Z,19.97
2017-12-13T14:09:49.783Z,19.92
2017-12-13T14:11:55.713Z,20.04
2017-12-13T14:14:04.291Z,20.06
2017-12-13T14:16:14.317Z,19.94
2017-12-13T14:18:22.872Z,20.00
2017-12-13T14:20:30.301Z,20.03
2017-12-13T14:22:38.953Z,19.96
2017-12-13T14:24:46.816Z,19.92
2017-12-13T14:26:55.970Z,19.91
2017-12-13T14:29:08.609Z,19.93
2017-12-13T14:31:16.732Z,19.88
2017-12-13T14:33:24.598Z,19.92
2017-12-13T14:35:33.369Z,19.96
2017-12-13T14:37:40.982Z,19.78
2017-12-13T14:39:46.486Z,18.27
2017-12-13T14:41:54.286Z,18.22
2017-12-13T14:44:03.101Z,18.38
2017-12-13T14:46:09.003Z,18.52
2017-12-13T14:48:15.380Z,18.58
2017-12-13T14:50:21.093Z,17.49
2017-12-13T14:52:29.341Z,18.13
2017-12-13T14:54:38.007Z,18.35
2017-12-13T14:56:43.950Z,18.29
2017-12-13T14:58:50.498Z,17.92
2017-12-13T15:01:04.461Z,18.02
2017-12-13T15:03:10.755Z,17.63
2017-12-13T15:05:20.144Z,18.05
2017-12-13T15:07:28.359Z,18.66
2017-12-13T15:09:38.231Z,18.94
2017-12-13T15:11:50.208Z,19.07
2017-12-13T15:14:04.986Z,19.30
2017-12-13T15:16:17.351Z,19.43
2017-12-13T15:20:46.940Z,19.56
2017-12-13T15:22:58.169Z,19.55
2017-12-13T15:25:13.833Z,19.49
2017-12-13T15:27:21.574Z,19.41
2017-12-13T15:29:33.501Z,19.43
2017-12-13T15:31:44.033Z,19.39
2017-12-13T15:33:54.263Z,19.36
2017-12-13T15:36:11.307Z,19.35
2017-12-13T15:38:21.474Z,19.37
2017-12-13T15:40:31.109Z,19.27
2017-12-13T15:42:44.616Z,19.38
2017-12-13T15:44:52.929Z,19.66
2017-12-13T15:47:04.774Z,19.63
2017-12-13T15:49:17.026Z,19.66
2017-12-13T15:51:30.557Z,19.58
2017-12-13T15:53:42.932Z,19.68
2017-12-13T15:55:52.844Z,19.73
2017-12-13T15:58:05.635Z,19.74
2017-12-13T16:00:25.392Z,19.69
2017-12-13T16:02:49.349Z,19.64
2017-12-13T16:05:10.763Z,19.63
2017-12-13T16:07:23.395Z,19.61
2017-12-13T16:09:32.607Z,19.68
2017-12-13T16:11:47.203Z,19.61
2017-12-13T16:13:56.104Z,19.59
2017-12-13T16:16:06.385Z,19.59
2017-12-13T16:18:13.786Z,19.50
2017-12-13T16:20:25.588Z,19.54
2017-12-13T16:22:34.219Z,19.58
2017-12-13T16:24:51.501Z,19.59
2017-12-13T16:27:09.191Z,19.50
2017-12-13T16:29:26.214Z,19.54
2017-12-13T16:31:36.836Z,19.53
2017-12-13T16:33:48.421Z,19.49
2017-12-13T16:36:02.501Z,19.37
2017-12-13T16:38:13.625Z,19.38
2017-12-13T16:40:24.198Z,19.42
2017-12-13T16:42:35.899Z,19.36
2017-12-13T16:44:54.795Z,19.39
2017-12-13T16:47:05.048Z,19.42
2017-12-13T16:49:20.615Z,19.39
2017-12-13T16:51:31.321Z,19.40
2017-12-13T16:53:51.519Z,19.35
2017-12-13T16:56:01.222Z,19.38
2017-12-13T16:58:09.929Z,19.41
2017-12-13T17:03:02.506Z,19.48
2017-12-13T17:05:25.651Z,19.47
2017-12-13T17:07:46.337Z,19.42
2017-12-13T17:09:55.600Z,19.43
2017-12-13T17:12:13.489Z,19.41
2017-12-13T17:14:23.520Z,19.38
2017-12-13T17:16:34.313Z,19.46
2017-12-13T17:18:43.581Z,19.48
2017-12-13T17:21:03.782Z,19.45
2017-12-13T17:23:13.435Z,19.45
2017-12-13T17:25:30.866Z,19.44
2017-12-13T17:27:51.291Z,19.41
2017-12-13T17:30:11.072Z,19.49
2017-12-13T17:32:22.353Z,19.42
2017-12-13T17:34:36.419Z,19.38
2017-12-13T17:36:45.428Z,19.39
2017-12-13T17:38:58.174Z,19.32
2017-12-13T17:41:18.500Z,19.44
2017-12-13T17:43:37.050Z,19.32
2017-12-13T17:45:50.406Z,19.36
2017-12-13T17:48:06.880Z,19.35
2017-12-13T17:50:18.377Z,19.39
2017-12-13T17:52:30.698Z,19.37
2017-12-13T17:54:47.771Z,19.39
2017-12-13T17:56:59.146Z,19.34
2017-12-13T17:59:12.988Z,19.38
2017-12-13T18:01:33.073Z,19.36
2017-12-13T18:03:45.716Z,19.38
2017-12-13T18:06:08.689Z,19.42
2017-12-13T18:08:16.838Z,19.35
2017-12-13T18:10:29.491Z,19.25
2017-12-13T18:12:41.060Z,19.31
2017-12-13T18:14:55.806Z,19.24
2017-12-13T18:17:05.714Z,19.29
2017-12-13T18:19:18.435Z,19.28
2017-12-13T18:21:31.190Z,19.30
2017-12-13T18:23:42.955Z,19.31
2017-12-13T18:26:00.457Z,19.27
2017-12-13T18:28:33.425Z,19.31
2017-12-13T18:30:48.553Z,19.25
2017-12-13T18:32:58.410Z,19.32
2017-12-13T18:35:11.274Z,19.27
2017-12-13T18:37:23.474Z,19.28
2017-12-13T18:39:38.158Z,19.21
2017-12-13T18:41:58.263Z,19.19
2017-12-13T18:44:13.795Z,19.22
2017-12-13T18:46:32.695Z,19.22
2017-12-13T18:48:39.859Z,19.29
2017-12-13T18:50:59.394Z,19.26
2017-12-13T18:53:16.478Z,19.26
2017-12-13T18:55:40.509Z,19.27
2017-12-13T18:57:54.949Z,19.32
2017-12-13T19:00:05.754Z,19.30
2017-12-13T19:02:17.457Z,19.19
2017-12-13T19:04:25.168Z,19.25
2017-12-13T19:06:36.391Z,19.35
2017-12-13T19:08:47.472Z,19.32
2017-12-13T19:11:03.927Z,19.30
2017-12-13T19:13:13.728Z,19.37
2017-12-13T19:15:28.512Z,19.35
2017-12-13T19:17:41.331Z,19.32
2017-12-13T19:19:58.212Z,19.36
2017-12-13T19:22:08.805Z,19.29
2017-12-13T19:24:31.376Z,19.35
2017-12-13T19:29:04.106Z,19.27
2017-12-13T19:31:15.302Z,19.28
2017-12-13T19:33:24.808Z,19.23
2017-12-13T19:35:45.268Z,19.18
2017-12-13T19:38:10.844Z,19.20
2017-12-13T19:40:18.713Z,19.23
2017-12-13T19:42:29.293Z,19.22
2017-12-13T19:44:49.287Z,19.17
2017-12-13T19:46:59.394Z,19.11
2017-12-13T19:49:14.482Z,19.02
2017-12-13T19:51:37.563Z,19.14
2017-12-13T19:53:48.825Z,18.99
2017-12-13T19:55:57.309Z,19.00
2017-12-13T19:58:14.125Z,19.05
2017-12-13T20:00:21.994Z,19.02
2017-12-13T20:02:40.566Z,19.06
2017-12-13T20:04:56.917Z,18.96
2017-12-13T20:09:28.349Z,19.07
2017-12-13T20:11:41.506Z,19.07
2017-12-13T20:13:52.540Z,19.14
2017-12-13T20:16:14.217Z,19.16
2017-12-13T20:18:33.347Z,19.20
2017-12-13T20:20:51.328Z,19.17
2017-12-13T20:23:10.535Z,19.18
2017-12-13T20:25:28.348Z,19.20
2017-12-13T20:27:52.805Z,19.17
2017-12-13T20:32:29.248Z,19.24
2017-12-13T20:34:53.300Z,19.21
2017-12-13T20:37:12.729Z,19.24
2017-12-13T20:47:22.395Z,19.19
2017-12-13T20:49:40.076Z,19.21
2017-12-13T20:52:11.244Z,19.18
2017-12-13T20:54:31.365Z,19.15
2017-12-13T20:56:57.514Z,19.14
2017-12-13T21:01:56.545Z,19.21
2017-12-13T21:04:11.504Z,19.15
2017-12-13T21:06:27.000Z,19.16
2017-12-13T21:08:43.079Z,19.17
2017-12-13T21:10:55.147Z,19.18
2017-12-13T21:13:15.361Z,19.16
2017-12-13T21:15:26.775Z,19.10
2017-12-13T21:18:00.331Z,19.15
2017-12-13T21:20:15.012Z,19.13
2017-12-13T21:22:28.983Z,19.10
2017-12-13T21:24:48.315Z,19.10
2017-12-13T21:27:19.209Z,19.02
2017-12-13T21:29:31.552Z,19.08
2017-12-13T21:31:48.640Z,19.07
2017-12-13T21:33:58.245Z,19.04
2017-12-13T21:38:33.922Z,19.17
2017-12-13T21:40:43.435Z,19.08
2017-12-13T21:42:56.529Z,19.11
2017-12-13T21:45:21.649Z,19.20
2017-12-13T21:47:34.498Z,19.19
2017-12-13T21:49:52.745Z,19.20
2017-12-13T21:52:08.504Z,19.18
2017-12-13T21:54:28.168Z,19.20
2017-12-13T21:56:46.799Z,19.21
2017-12-13T21:59:04.094Z,19.19
2017-12-13T22:01:35.664Z,19.22
2017-12-13T22:03:45.409Z,19.15
2017-12-13T22:06:02.023Z,19.15
2017-12-13T22:08:24.129Z,19.20
2017-12-13T22:10:41.478Z,19.28
2017-12-13T22:12:54.164Z,19.22
2017-12-13T22:15:12.962Z,19.20
2017-12-13T22:17:29.148Z,19.22
2017-12-13T22:19:50.541Z,19.23
2017-12-13T22:22:12.019Z,19.17
2017-12-13T22:24:25.051Z,19.24
2017-12-13T22:26:37.664Z,19.23
2017-12-13T22:28:56.952Z,19.23
2017-12-13T22:31:10.316Z,19.36
2017-12-13T22:33:20.124Z,19.25
2017-12-13T22:35:34.760Z,19.27
2017-12-13T22:37:44.863Z,19.22
2017-12-13T22:39:51.813Z,19.24
2017-12-13T22:42:04.557Z,19.20
2017-12-13T22:44:18.037Z,19.21
2017-12-13T22:46:33.157Z,19.20
2017-12-13T22:48:49.964Z,19.24
2017-12-13T22:51:08.208Z,19.23
2017-12-13T22:53:24.751Z,19.28
2017-12-13T22:55:39.203Z,19.27
2017-12-13T22:57:49.903Z,19.32
2017-12-13T23:00:00.480Z,19.31
2017-12-13T23:04:38.693Z,19.36
2017-12-13T23:06:49.671Z,19.41
2017-12-13T23:08:57.240Z,19.30
2017-12-13T23:13:31.077Z,19.30
2017-12-13T23:18:03.014Z,19.30
2017-12-13T23:20:13.617Z,19.31
2017-12-13T23:22:34.221Z,19.32
2017-12-13T23:24:51.772Z,19.32
2017-12-13T23:27:04.367Z,19.35
2017-12-13T23:29:15.100Z,19.30
2017-12-13T23:31:37.492Z,19.31
2017-12-13T23:33:55.704Z,19.32
2017-12-13T23:36:06.866Z,19.33
2017-12-13T23:38:16.434Z,19.37
2017-12-13T23:40:26.092Z,19.33
2017-12-13T23:44:34.714Z,19.31
2017-12-13T23:46:54.075Z,19.27
2017-12-13T23:49:05.165Z,19.35
2017-12-13T23:51:17.841Z,19.46
2017-12-13T23:53:28.488Z,19.49
2017-12-13T23:55:35.263Z,19.43
2017-12-13T23:57:54.800Z,19.54
